Pactola Lake, South Dakota
Current Conditions -  °F | °C
As of 1:33 PM on Monday 24 Nov 2014 (Local Time) from KRCA Reporting Station
Light Snow Light Snow  
Wind Chill: 20°   Ceiling: 500
Heat Index: 28°   Visibility: 0.37mi
Dew Point: 28°   Wind: 9mph
Humidity: 100%   Direction: 350°N
Pressure: 29.95"   Gusts: NA
Location:  44.07°N, 103.324°W
Report Text: KRCA 242033Z 35008KT 3/8SM -SN SCT003 OVC005 M02/M02 A2995 RMK AO2A CIG 001 RWY13 $
Loading
Personal Weather Stations






























Interactive Weather Map New forecast layout! Learn more

10-Day Weather Forecast

Advertisements
Track Severe Weather on mobile